sensor_id;sensor_type;location;lat;lon;timestamp;P1;durP1;ratioP1;P2;durP2;ratioP2
18046;SDS011;9148;51.454;13.862;2024-03-22T00:00:41;8.90;;;5.87;;
18046;SDS011;9148;51.454;13.862;2024-03-22T02:03:12;7.03;;;4.27;;
18046;SDS011;9148;51.454;13.862;2024-03-22T02:05:38;5.93;;;4.87;;
18046;SDS011;9148;51.454;13.862;2024-03-22T02:08:04;7.80;;;5.60;;
18046;SDS011;9148;51.454;13.862;2024-03-22T02:10:30;6.67;;;4.80;;
18046;SDS011;9148;51.454;13.862;2024-03-22T02:12:56;6.17;;;4.23;;
18046;SDS011;9148;51.454;13.862;2024-03-22T02:15:22;5.07;;;4.13;;
18046;SDS011;9148;51.454;13.862;2024-03-22T02:17:48;4.07;;;3.57;;
18046;SDS011;9148;51.454;13.862;2024-03-22T02:20:13;4.60;;;3.83;;
18046;SDS011;9148;51.454;13.862;2024-03-22T02:22:39;5.10;;;3.60;;
18046;SDS011;9148;51.454;13.862;2024-03-22T02:25:05;7.13;;;4.00;;
18046;SDS011;9148;51.454;13.862;2024-03-22T02:27:32;14.10;;;4.80;;
18046;SDS011;9148;51.454;13.862;2024-03-22T02:29:59;6.50;;;4.07;;
18046;SDS011;9148;51.454;13.862;2024-03-22T02:32:24;7.47;;;4.33;;
18046;SDS011;9148;51.454;13.862;2024-03-22T02:34:50;5.20;;;3.90;;
18046;SDS011;9148;51.454;13.862;2024-03-22T02:37:16;9.13;;;6.10;;
18046;SDS011;9148;51.454;13.862;2024-03-22T02:39:41;7.67;;;5.13;;
18046;SDS011;9148;51.454;13.862;2024-03-22T02:42:08;9.80;;;4.97;;
18046;SDS011;9148;51.454;13.862;2024-03-22T02:44:33;7.23;;;4.43;;
18046;SDS011;9148;51.454;13.862;2024-03-22T02:46:59;5.73;;;3.77;;
18046;SDS011;9148;51.454;13.862;2024-03-22T02:49:25;5.40;;;4.03;;
18046;SDS011;9148;51.454;13.862;2024-03-22T02:51:51;6.83;;;4.83;;
18046;SDS011;9148;51.454;13.862;2024-03-22T02:54:16;7.40;;;4.60;;
18046;SDS011;9148;51.454;13.862;2024-03-22T02:56:42;6.37;;;3.77;;
18046;SDS011;9148;51.454;13.862;2024-03-22T02:59:07;8.30;;;5.00;;
18046;SDS011;9148;51.454;13.862;2024-03-22T03:01:33;6.43;;;4.80;;
18046;SDS011;9148;51.454;13.862;2024-03-22T03:03:59;10.00;;;5.17;;
18046;SDS011;9148;51.454;13.862;2024-03-22T03:06:24;7.60;;;4.20;;
18046;SDS011;9148;51.454;13.862;2024-03-22T03:08:50;4.90;;;4.37;;
18046;SDS011;9148;51.454;13.862;2024-03-22T03:11:16;7.63;;;5.40;;
18046;SDS011;9148;51.454;13.862;2024-03-22T03:13:41;11.43;;;5.57;;
18046;SDS011;9148;51.454;13.862;2024-03-22T03:16:07;7.40;;;4.97;;
18046;SDS011;9148;51.454;13.862;2024-03-22T03:18:33;7.83;;;5.10;;
18046;SDS011;9148;51.454;13.862;2024-03-22T03:20:58;9.03;;;5.53;;
18046;SDS011;9148;51.454;13.862;2024-03-22T03:23:24;6.93;;;4.30;;
18046;SDS011;9148;51.454;13.862;2024-03-22T03:25:49;4.90;;;4.33;;
18046;SDS011;9148;51.454;13.862;2024-03-22T03:28:16;8.20;;;5.73;;
18046;SDS011;9148;51.454;13.862;2024-03-22T03:30:41;6.57;;;4.40;;
18046;SDS011;9148;51.454;13.862;2024-03-22T03:33:07;11.37;;;5.27;;
18046;SDS011;9148;51.454;13.862;2024-03-22T03:35:32;6.10;;;4.00;;
18046;SDS011;9148;51.454;13.862;2024-03-22T03:37:58;10.57;;;5.93;;
18046;SDS011;9148;51.454;13.862;2024-03-22T03:40:24;9.10;;;6.17;;
18046;SDS011;9148;51.454;13.862;2024-03-22T03:42:51;6.20;;;5.17;;
18046;SDS011;9148;51.454;13.862;2024-03-22T03:45:17;7.07;;;4.07;;
18046;SDS011;9148;51.454;13.862;2024-03-22T03:47:42;7.40;;;3.50;;
18046;SDS011;9148;51.454;13.862;2024-03-22T03:50:08;8.97;;;4.83;;
18046;SDS011;9148;51.454;13.862;2024-03-22T03:52:34;6.47;;;4.47;;
18046;SDS011;9148;51.454;13.862;2024-03-22T03:55:00;6.63;;;4.10;;
18046;SDS011;9148;51.454;13.862;2024-03-22T03:57:26;6.93;;;4.40;;
18046;SDS011;9148;51.454;13.862;2024-03-22T03:59:51;8.87;;;5.13;;
18046;SDS011;9148;51.454;13.862;2024-03-22T04:02:17;6.43;;;4.43;;
18046;SDS011;9148;51.454;13.862;2024-03-22T04:04:43;6.57;;;4.60;;
18046;SDS011;9148;51.454;13.862;2024-03-22T04:07:08;8.47;;;4.53;;
18046;SDS011;9148;51.454;13.862;2024-03-22T04:09:34;9.43;;;4.50;;
18046;SDS011;9148;51.454;13.862;2024-03-22T04:12:00;10.07;;;5.07;;
18046;SDS011;9148;51.454;13.862;2024-03-22T04:14:25;7.63;;;4.47;;
18046;SDS011;9148;51.454;13.862;2024-03-22T04:16:51;8.63;;;4.73;;
18046;SDS011;9148;51.454;13.862;2024-03-22T04:19:19;7.87;;;4.83;;
18046;SDS011;9148;51.454;13.862;2024-03-22T04:21:46;7.67;;;5.33;;
18046;SDS011;9148;51.454;13.862;2024-03-22T04:24:12;5.93;;;4.30;;
18046;SDS011;9148;51.454;13.862;2024-03-22T04:26:37;8.90;;;5.07;;
18046;SDS011;9148;51.454;13.862;2024-03-22T04:29:03;8.23;;;5.00;;
18046;SDS011;9148;51.454;13.862;2024-03-22T04:31:28;8.90;;;4.47;;
18046;SDS011;9148;51.454;13.862;2024-03-22T04:33:54;5.43;;;4.13;;
18046;SDS011;9148;51.454;13.862;2024-03-22T04:36:21;6.10;;;4.67;;
18046;SDS011;9148;51.454;13.862;2024-03-22T04:38:46;7.73;;;5.33;;
18046;SDS011;9148;51.454;13.862;2024-03-22T04:41:12;5.90;;;4.63;;
18046;SDS011;9148;51.454;13.862;2024-03-22T04:43:38;11.43;;;5.33;;
18046;SDS011;9148;51.454;13.862;2024-03-22T04:46:04;6.80;;;4.90;;
18046;SDS011;9148;51.454;13.862;2024-03-22T04:48:29;6.83;;;5.37;;
18046;SDS011;9148;51.454;13.862;2024-03-22T04:50:55;6.33;;;4.47;;
18046;SDS011;9148;51.454;13.862;2024-03-22T04:53:21;8.07;;;4.50;;
18046;SDS011;9148;51.454;13.862;2024-03-22T04:55:47;6.77;;;4.77;;
18046;SDS011;9148;51.454;13.862;2024-03-22T04:58:14;7.43;;;5.40;;
18046;SDS011;9148;51.454;13.862;2024-03-22T05:00:44;5.97;;;4.90;;
18046;SDS011;9148;51.454;13.862;2024-03-22T05:03:10;8.27;;;5.30;;
18046;SDS011;9148;51.454;13.862;2024-03-22T05:05:37;7.33;;;5.40;;
18046;SDS011;9148;51.454;13.862;2024-03-22T05:08:03;9.30;;;5.80;;
18046;SDS011;9148;51.454;13.862;2024-03-22T05:10:30;11.40;;;7.63;;
18046;SDS011;9148;51.454;13.862;2024-03-22T05:12:56;5.10;;;4.03;;
18046;SDS011;9148;51.454;13.862;2024-03-22T05:15:25;10.13;;;5.13;;
18046;SDS011;9148;51.454;13.862;2024-03-22T05:17:51;8.10;;;5.27;;
18046;SDS011;9148;51.454;13.862;2024-03-22T05:20:18;7.27;;;5.60;;
18046;SDS011;9148;51.454;13.862;2024-03-22T05:22:44;7.07;;;4.40;;
18046;SDS011;9148;51.454;13.862;2024-03-22T05:25:10;8.10;;;5.43;;
18046;SDS011;9148;51.454;13.862;2024-03-22T05:27:37;6.27;;;5.63;;
18046;SDS011;9148;51.454;13.862;2024-03-22T05:30:03;8.37;;;5.27;;
18046;SDS011;9148;51.454;13.862;2024-03-22T05:32:29;5.83;;;4.53;;
18046;SDS011;9148;51.454;13.862;2024-03-22T05:34:55;9.80;;;5.63;;
18046;SDS011;9148;51.454;13.862;2024-03-22T05:37:20;6.53;;;4.83;;
18046;SDS011;9148;51.454;13.862;2024-03-22T05:39:47;14.47;;;5.47;;
18046;SDS011;9148;51.454;13.862;2024-03-22T05:42:13;9.27;;;6.50;;
18046;SDS011;9148;51.454;13.862;2024-03-22T05:44:39;6.87;;;5.23;;
18046;SDS011;9148;51.454;13.862;2024-03-22T05:47:05;6.70;;;5.00;;
18046;SDS011;9148;51.454;13.862;2024-03-22T05:49:30;7.87;;;5.10;;
18046;SDS011;9148;51.454;13.862;2024-03-22T05:51:56;8.20;;;5.27;;
18046;SDS011;9148;51.454;13.862;2024-03-22T05:54:22;6.97;;;4.73;;
18046;SDS011;9148;51.454;13.862;2024-03-22T05:56:47;10.93;;;5.53;;
18046;SDS011;9148;51.454;13.862;2024-03-22T05:59:13;6.40;;;4.70;;
18046;SDS011;9148;51.454;13.862;2024-03-22T06:01:38;7.50;;;4.33;;
18046;SDS011;9148;51.454;13.862;2024-03-22T06:04:04;9.33;;;5.67;;
18046;SDS011;9148;51.454;13.862;2024-03-22T06:06:31;6.87;;;3.63;;
18046;SDS011;9148;51.454;13.862;2024-03-22T06:09:00;6.03;;;4.43;;
18046;SDS011;9148;51.454;13.862;2024-03-22T06:11:29;6.23;;;5.27;;
18046;SDS011;9148;51.454;13.862;2024-03-22T06:13:58;6.93;;;3.80;;
18046;SDS011;9148;51.454;13.862;2024-03-22T06:16:24;8.23;;;5.60;;
18046;SDS011;9148;51.454;13.862;2024-03-22T06:18:49;7.70;;;4.50;;
18046;SDS011;9148;51.454;13.862;2024-03-22T06:21:15;7.20;;;4.60;;
18046;SDS011;9148;51.454;13.862;2024-03-22T06:23:46;6.17;;;4.60;;
18046;SDS011;9148;51.454;13.862;2024-03-22T06:26:14;7.53;;;5.30;;
18046;SDS011;9148;51.454;13.862;2024-03-22T06:28:40;8.53;;;4.70;;
18046;SDS011;9148;51.454;13.862;2024-03-22T06:31:05;9.57;;;4.57;;
18046;SDS011;9148;51.454;13.862;2024-03-22T06:33:31;6.93;;;4.53;;
18046;SDS011;9148;51.454;13.862;2024-03-22T06:35:57;7.20;;;4.30;;
18046;SDS011;9148;51.454;13.862;2024-03-22T06:38:22;5.77;;;3.80;;
18046;SDS011;9148;51.454;13.862;2024-03-22T06:40:48;6.07;;;4.37;;
18046;SDS011;9148;51.454;13.862;2024-03-22T06:43:14;6.37;;;3.90;;
18046;SDS011;9148;51.454;13.862;2024-03-22T06:45:39;8.97;;;4.67;;
18046;SDS011;9148;51.454;13.862;2024-03-22T06:48:05;6.07;;;3.97;;
18046;SDS011;9148;51.454;13.862;2024-03-22T06:50:31;8.77;;;4.07;;
18046;SDS011;9148;51.454;13.862;2024-03-22T06:52:56;7.37;;;3.87;;
18046;SDS011;9148;51.454;13.862;2024-03-22T06:55:22;6.97;;;3.53;;
18046;SDS011;9148;51.454;13.862;2024-03-22T06:57:48;5.37;;;4.00;;
18046;SDS011;9148;51.454;13.862;2024-03-22T07:00:15;6.37;;;3.70;;
18046;SDS011;9148;51.454;13.862;2024-03-22T07:02:41;4.80;;;3.10;;
18046;SDS011;9148;51.454;13.862;2024-03-22T07:05:07;6.40;;;3.90;;
18046;SDS011;9148;51.454;13.862;2024-03-22T07:07:34;5.80;;;3.97;;
18046;SDS011;9148;51.454;13.862;2024-03-22T07:10:00;5.47;;;3.23;;
18046;SDS011;9148;51.454;13.862;2024-03-22T07:12:27;7.90;;;3.53;;
18046;SDS011;9148;51.454;13.862;2024-03-22T07:14:52;5.80;;;3.00;;
18046;SDS011;9148;51.454;13.862;2024-03-22T07:17:18;6.20;;;3.70;;
18046;SDS011;9148;51.454;13.862;2024-03-22T07:19:48;5.97;;;2.97;;
18046;SDS011;9148;51.454;13.862;2024-03-22T07:22:18;6.33;;;3.87;;
18046;SDS011;9148;51.454;13.862;2024-03-22T07:24:44;5.23;;;2.90;;
18046;SDS011;9148;51.454;13.862;2024-03-22T07:27:10;5.30;;;3.73;;
18046;SDS011;9148;51.454;13.862;2024-03-22T07:29:36;3.90;;;3.10;;
18046;SDS011;9148;51.454;13.862;2024-03-22T07:32:02;5.37;;;3.73;;
18046;SDS011;9148;51.454;13.862;2024-03-22T07:34:28;6.80;;;3.57;;
18046;SDS011;9148;51.454;13.862;2024-03-22T07:36:54;7.07;;;2.97;;
18046;SDS011;9148;51.454;13.862;2024-03-22T07:39:20;3.93;;;2.70;;
18046;SDS011;9148;51.454;13.862;2024-03-22T07:41:46;2.67;;;2.27;;
18046;SDS011;9148;51.454;13.862;2024-03-22T07:44:11;4.17;;;3.03;;
18046;SDS011;9148;51.454;13.862;2024-03-22T07:46:37;7.53;;;3.60;;
18046;SDS011;9148;51.454;13.862;2024-03-22T07:49:03;4.60;;;3.63;;
18046;SDS011;9148;51.454;13.862;2024-03-22T07:51:29;8.23;;;2.57;;
18046;SDS011;9148;51.454;13.862;2024-03-22T07:53:55;5.47;;;3.27;;
18046;SDS011;9148;51.454;13.862;2024-03-22T07:56:21;9.33;;;3.63;;
18046;SDS011;9148;51.454;13.862;2024-03-22T07:58:47;7.07;;;3.07;;
18046;SDS011;9148;51.454;13.862;2024-03-22T08:01:12;8.93;;;3.20;;
18046;SDS011;9148;51.454;13.862;2024-03-22T08:03:38;6.37;;;3.37;;
18046;SDS011;9148;51.454;13.862;2024-03-22T08:06:04;3.87;;;2.70;;
18046;SDS011;9148;51.454;13.862;2024-03-22T08:08:30;5.37;;;3.33;;
18046;SDS011;9148;51.454;13.862;2024-03-22T08:10:56;3.83;;;3.07;;
18046;SDS011;9148;51.454;13.862;2024-03-22T08:13:21;4.23;;;3.67;;
18046;SDS011;9148;51.454;13.862;2024-03-22T08:15:47;6.70;;;4.27;;
18046;SDS011;9148;51.454;13.862;2024-03-22T08:18:13;8.20;;;3.70;;
18046;SDS011;9148;51.454;13.862;2024-03-22T08:20:38;4.60;;;2.93;;
18046;SDS011;9148;51.454;13.862;2024-03-22T08:23:04;5.10;;;4.03;;
18046;SDS011;9148;51.454;13.862;2024-03-22T08:25:30;5.77;;;3.63;;
18046;SDS011;9148;51.454;13.862;2024-03-22T08:27:56;6.70;;;4.30;;
18046;SDS011;9148;51.454;13.862;2024-03-22T08:30:23;9.43;;;5.27;;
18046;SDS011;9148;51.454;13.862;2024-03-22T08:32:50;5.07;;;4.47;;
18046;SDS011;9148;51.454;13.862;2024-03-22T08:35:17;9.23;;;5.20;;
18046;SDS011;9148;51.454;13.862;2024-03-22T08:37:42;8.53;;;4.70;;
18046;SDS011;9148;51.454;13.862;2024-03-22T08:40:08;10.40;;;4.73;;
18046;SDS011;9148;51.454;13.862;2024-03-22T08:42:35;6.87;;;5.27;;
18046;SDS011;9148;51.454;13.862;2024-03-22T08:45:01;7.77;;;3.93;;
18046;SDS011;9148;51.454;13.862;2024-03-22T08:47:29;10.07;;;4.90;;
18046;SDS011;9148;51.454;13.862;2024-03-22T08:49:56;8.43;;;4.70;;
18046;SDS011;9148;51.454;13.862;2024-03-22T08:52:22;8.97;;;4.70;;
18046;SDS011;9148;51.454;13.862;2024-03-22T08:54:52;8.33;;;4.93;;
18046;SDS011;9148;51.454;13.862;2024-03-22T08:57:18;12.93;;;4.90;;
18046;SDS011;9148;51.454;13.862;2024-03-22T08:59:44;10.17;;;5.03;;
18046;SDS011;9148;51.454;13.862;2024-03-22T09:02:10;7.73;;;4.27;;
18046;SDS011;9148;51.454;13.862;2024-03-22T09:04:36;10.43;;;5.30;;
18046;SDS011;9148;51.454;13.862;2024-03-22T09:07:03;9.37;;;5.53;;
18046;SDS011;9148;51.454;13.862;2024-03-22T09:09:29;6.30;;;4.00;;
18046;SDS011;9148;51.454;13.862;2024-03-22T09:11:54;7.40;;;5.07;;
18046;SDS011;9148;51.454;13.862;2024-03-22T09:14:20;7.57;;;5.00;;
18046;SDS011;9148;51.454;13.862;2024-03-22T09:16:46;9.50;;;4.53;;
18046;SDS011;9148;51.454;13.862;2024-03-22T09:19:11;9.00;;;4.70;;
18046;SDS011;9148;51.454;13.862;2024-03-22T09:21:37;7.67;;;4.70;;
18046;SDS011;9148;51.454;13.862;2024-03-22T09:24:03;10.10;;;5.05;;
18046;SDS011;9148;51.454;13.862;2024-03-22T09:26:29;6.73;;;4.40;;
18046;SDS011;9148;51.454;13.862;2024-03-22T09:28:57;7.75;;;4.95;;
18046;SDS011;9148;51.454;13.862;2024-03-22T09:31:23;10.20;;;4.90;;
18046;SDS011;9148;51.454;13.862;2024-03-22T09:33:49;8.55;;;4.20;;
18046;SDS011;9148;51.454;13.862;2024-03-22T09:36:14;9.93;;;5.97;;
18046;SDS011;9148;51.454;13.862;2024-03-22T09:38:40;9.88;;;4.80;;
18046;SDS011;9148;51.454;13.862;2024-03-22T09:41:06;6.60;;;4.22;;
18046;SDS011;9148;51.454;13.862;2024-03-22T09:43:32;9.23;;;5.70;;
18046;SDS011;9148;51.454;13.862;2024-03-22T09:45:59;9.07;;;5.13;;
18046;SDS011;9148;51.454;13.862;2024-03-22T09:48:26;7.32;;;5.07;;
18046;SDS011;9148;51.454;13.862;2024-03-22T09:50:54;11.23;;;5.43;;
18046;SDS011;9148;51.454;13.862;2024-03-22T09:53:20;8.43;;;5.03;;
18046;SDS011;9148;51.454;13.862;2024-03-22T09:55:47;9.55;;;4.88;;
18046;SDS011;9148;51.454;13.862;2024-03-22T09:58:14;8.18;;;4.85;;
18046;SDS011;9148;51.454;13.862;2024-03-22T10:00:44;12.23;;;5.38;;
18046;SDS011;9148;51.454;13.862;2024-03-22T10:03:09;11.07;;;4.13;;
18046;SDS011;9148;51.454;13.862;2024-03-22T10:05:36;10.20;;;5.30;;
18046;SDS011;9148;51.454;13.862;2024-03-22T10:08:02;7.77;;;3.77;;
18046;SDS011;9148;51.454;13.862;2024-03-22T10:10:32;7.45;;;4.10;;
18046;SDS011;9148;51.454;13.862;2024-03-22T10:13:01;6.45;;;4.25;;
18046;SDS011;9148;51.454;13.862;2024-03-22T10:15:29;6.53;;;3.47;;
18046;SDS011;9148;51.454;13.862;2024-03-22T10:17:56;5.90;;;4.15;;
18046;SDS011;9148;51.454;13.862;2024-03-22T10:20:22;9.65;;;4.72;;
18046;SDS011;9148;51.454;13.862;2024-03-22T10:22:49;7.55;;;4.13;;
18046;SDS011;9148;51.454;13.862;2024-03-22T10:25:21;6.30;;;4.15;;
18046;SDS011;9148;51.454;13.862;2024-03-22T10:27:54;9.55;;;4.25;;
18046;SDS011;9148;51.454;13.862;2024-03-22T10:30:21;4.22;;;3.10;;
18046;SDS011;9148;51.454;13.862;2024-03-22T10:32:49;5.20;;;4.45;;
18046;SDS011;9148;51.454;13.862;2024-03-22T10:35:14;8.40;;;4.05;;
18046;SDS011;9148;51.454;13.862;2024-03-22T10:37:41;6.97;;;4.22;;
18046;SDS011;9148;51.454;13.862;2024-03-22T10:40:07;7.40;;;4.22;;
18046;SDS011;9148;51.454;13.862;2024-03-22T10:42:35;8.25;;;3.95;;
18046;SDS011;9148;51.454;13.862;2024-03-22T10:45:05;7.57;;;3.53;;
18046;SDS011;9148;51.454;13.862;2024-03-22T10:47:33;5.00;;;3.67;;
18046;SDS011;9148;51.454;13.862;2024-03-22T10:52:33;9.38;;;4.22;;
18046;SDS011;9148;51.454;13.862;2024-03-22T10:55:25;6.88;;;3.38;;
18046;SDS011;9148;51.454;13.862;2024-03-22T10:57:55;5.82;;;3.33;;
18046;SDS011;9148;51.454;13.862;2024-03-22T11:00:28;7.22;;;3.05;;
18046;SDS011;9148;51.454;13.862;2024-03-22T11:02:55;9.18;;;4.85;;
18046;SDS011;9148;51.454;13.862;2024-03-22T11:05:21;3.88;;;3.20;;
18046;SDS011;9148;51.454;13.862;2024-03-22T11:07:47;5.80;;;3.30;;
18046;SDS011;9148;51.454;13.862;2024-03-22T11:10:25;6.80;;;3.78;;
18046;SDS011;9148;51.454;13.862;2024-03-22T11:13:03;6.38;;;3.47;;
18046;SDS011;9148;51.454;13.862;2024-03-22T11:15:32;4.85;;;3.75;;
18046;SDS011;9148;51.454;13.862;2024-03-22T11:17:58;3.63;;;2.90;;
18046;SDS011;9148;51.454;13.862;2024-03-22T11:20:25;8.48;;;3.72;;
18046;SDS011;9148;51.454;13.862;2024-03-22T11:22:52;7.18;;;3.50;;
18046;SDS011;9148;51.454;13.862;2024-03-22T11:25:18;12.10;;;4.30;;
18046;SDS011;9148;51.454;13.862;2024-03-22T11:27:45;7.93;;;3.58;;
18046;SDS011;9148;51.454;13.862;2024-03-22T11:30:11;4.43;;;3.13;;
18046;SDS011;9148;51.454;13.862;2024-03-22T11:32:37;8.52;;;3.58;;
18046;SDS011;9148;51.454;13.862;2024-03-22T11:35:09;4.57;;;2.88;;
18046;SDS011;9148;51.454;13.862;2024-03-22T11:37:36;4.22;;;3.20;;
18046;SDS011;9148;51.454;13.862;2024-03-22T11:40:03;5.72;;;3.20;;
18046;SDS011;9148;51.454;13.862;2024-03-22T11:42:32;13.20;;;3.72;;
18046;SDS011;9148;51.454;13.862;2024-03-22T11:44:59;9.13;;;3.25;;
18046;SDS011;9148;51.454;13.862;2024-03-22T11:47:25;6.47;;;3.22;;
18046;SDS011;9148;51.454;13.862;2024-03-22T11:49:50;4.53;;;2.88;;
18046;SDS011;9148;51.454;13.862;2024-03-22T11:52:16;5.72;;;3.17;;
18046;SDS011;9148;51.454;13.862;2024-03-22T11:54:42;4.40;;;2.55;;
18046;SDS011;9148;51.454;13.862;2024-03-22T11:57:08;5.30;;;3.50;;
18046;SDS011;9148;51.454;13.862;2024-03-22T11:59:34;6.28;;;3.63;;
18046;SDS011;9148;51.454;13.862;2024-03-22T12:02:00;4.30;;;2.33;;
18046;SDS011;9148;51.454;13.862;2024-03-22T12:04:26;5.25;;;3.65;;
18046;SDS011;9148;51.454;13.862;2024-03-22T12:06:51;5.47;;;3.05;;
18046;SDS011;9148;51.454;13.862;2024-03-22T12:09:18;4.13;;;2.95;;
18046;SDS011;9148;51.454;13.862;2024-03-22T12:11:44;5.63;;;3.35;;
18046;SDS011;9148;51.454;13.862;2024-03-22T12:14:10;5.57;;;3.25;;
18046;SDS011;9148;51.454;13.862;2024-03-22T12:16:35;4.95;;;3.25;;
18046;SDS011;9148;51.454;13.862;2024-03-22T12:19:01;6.95;;;2.85;;
18046;SDS011;9148;51.454;13.862;2024-03-22T12:21:28;8.20;;;4.32;;
18046;SDS011;9148;51.454;13.862;2024-03-22T12:23:53;15.40;;;3.55;;
18046;SDS011;9148;51.454;13.862;2024-03-22T12:26:19;4.30;;;2.85;;
18046;SDS011;9148;51.454;13.862;2024-03-22T12:28:45;7.88;;;2.58;;
18046;SDS011;9148;51.454;13.862;2024-03-22T12:31:11;3.78;;;2.40;;
18046;SDS011;9148;51.454;13.862;2024-03-22T12:33:37;6.32;;;3.38;;
18046;SDS011;9148;51.454;13.862;2024-03-22T12:36:03;11.73;;;3.90;;
18046;SDS011;9148;51.454;13.862;2024-03-22T12:38:29;4.80;;;3.17;;
18046;SDS011;9148;51.454;13.862;2024-03-22T12:40:55;5.85;;;3.17;;
18046;SDS011;9148;51.454;13.862;2024-03-22T12:43:21;6.78;;;3.42;;
18046;SDS011;9148;51.454;13.862;2024-03-22T12:45:47;10.60;;;3.97;;
18046;SDS011;9148;51.454;13.862;2024-03-22T12:48:13;8.70;;;3.33;;
18046;SDS011;9148;51.454;13.862;2024-03-22T12:50:38;3.45;;;2.45;;
18046;SDS011;9148;51.454;13.862;2024-03-22T12:53:04;4.80;;;2.72;;
18046;SDS011;9148;51.454;13.862;2024-03-22T12:55:30;6.90;;;3.10;;
18046;SDS011;9148;51.454;13.862;2024-03-22T12:57:56;6.78;;;2.92;;
18046;SDS011;9148;51.454;13.862;2024-03-22T13:00:22;3.15;;;1.92;;
18046;SDS011;9148;51.454;13.862;2024-03-22T13:02:48;4.82;;;2.55;;
18046;SDS011;9148;51.454;13.862;2024-03-22T13:05:14;3.85;;;2.97;;
18046;SDS011;9148;51.454;13.862;2024-03-22T13:07:40;2.92;;;2.33;;
18046;SDS011;9148;51.454;13.862;2024-03-22T13:10:07;3.42;;;2.50;;
18046;SDS011;9148;51.454;13.862;2024-03-22T13:12:33;2.75;;;2.30;;
18046;SDS011;9148;51.454;13.862;2024-03-22T13:15:00;7.53;;;2.90;;
18046;SDS011;9148;51.454;13.862;2024-03-22T13:17:26;3.00;;;2.35;;
18046;SDS011;9148;51.454;13.862;2024-03-22T13:19:52;4.85;;;2.90;;
18046;SDS011;9148;51.454;13.862;2024-03-22T13:22:17;5.32;;;2.22;;
18046;SDS011;9148;51.454;13.862;2024-03-22T13:24:46;4.82;;;2.67;;
18046;SDS011;9148;51.454;13.862;2024-03-22T13:27:12;6.00;;;2.47;;
18046;SDS011;9148;51.454;13.862;2024-03-22T13:29:39;8.07;;;2.80;;
18046;SDS011;9148;51.454;13.862;2024-03-22T13:32:05;3.88;;;2.72;;
18046;SDS011;9148;51.454;13.862;2024-03-22T13:34:33;5.28;;;3.08;;
18046;SDS011;9148;51.454;13.862;2024-03-22T13:37:03;5.68;;;2.58;;
18046;SDS011;9148;51.454;13.862;2024-03-22T13:39:29;5.95;;;3.30;;
18046;SDS011;9148;51.454;13.862;2024-03-22T13:41:55;4.63;;;2.92;;
18046;SDS011;9148;51.454;13.862;2024-03-22T13:44:22;5.00;;;2.78;;
18046;SDS011;9148;51.454;13.862;2024-03-22T13:46:50;8.10;;;3.33;;
18046;SDS011;9148;51.454;13.862;2024-03-22T13:49:17;5.05;;;2.85;;
18046;SDS011;9148;51.454;13.862;2024-03-22T13:51:45;5.15;;;2.88;;
18046;SDS011;9148;51.454;13.862;2024-03-22T13:54:12;6.00;;;3.47;;
18046;SDS011;9148;51.454;13.862;2024-03-22T13:56:38;5.72;;;3.42;;
18046;SDS011;9148;51.454;13.862;2024-03-22T13:59:04;5.50;;;3.00;;
18046;SDS011;9148;51.454;13.862;2024-03-22T14:01:33;6.13;;;3.30;;
18046;SDS011;9148;51.454;13.862;2024-03-22T14:04:00;5.75;;;3.25;;
18046;SDS011;9148;51.454;13.862;2024-03-22T14:06:26;6.15;;;3.78;;
18046;SDS011;9148;51.454;13.862;2024-03-22T14:08:52;5.50;;;3.40;;
18046;SDS011;9148;51.454;13.862;2024-03-22T14:11:20;5.75;;;3.63;;
18046;SDS011;9148;51.454;13.862;2024-03-22T14:13:46;5.32;;;3.55;;
18046;SDS011;9148;51.454;13.862;2024-03-22T14:16:11;5.00;;;3.67;;
18046;SDS011;9148;51.454;13.862;2024-03-22T14:18:37;6.22;;;3.50;;
18046;SDS011;9148;51.454;13.862;2024-03-22T14:21:03;5.97;;;3.28;;
18046;SDS011;9148;51.454;13.862;2024-03-22T14:23:28;6.45;;;3.92;;
18046;SDS011;9148;51.454;13.862;2024-03-22T14:25:54;5.80;;;3.30;;
18046;SDS011;9148;51.454;13.862;2024-03-22T14:28:20;8.23;;;4.00;;
18046;SDS011;9148;51.454;13.862;2024-03-22T14:30:46;6.93;;;3.92;;
18046;SDS011;9148;51.454;13.862;2024-03-22T14:33:12;8.30;;;4.30;;
18046;SDS011;9148;51.454;13.862;2024-03-22T14:35:38;6.70;;;4.47;;
18046;SDS011;9148;51.454;13.862;2024-03-22T14:38:04;6.05;;;4.45;;
18046;SDS011;9148;51.454;13.862;2024-03-22T14:40:29;5.93;;;4.25;;
18046;SDS011;9148;51.454;13.862;2024-03-22T14:43:01;5.78;;;4.30;;
18046;SDS011;9148;51.454;13.862;2024-03-22T14:45:28;5.82;;;3.67;;
18046;SDS011;9148;51.454;13.862;2024-03-22T14:47:54;6.97;;;4.45;;
18046;SDS011;9148;51.454;13.862;2024-03-22T14:50:20;6.22;;;3.58;;
18046;SDS011;9148;51.454;13.862;2024-03-22T14:52:48;7.68;;;4.70;;
18046;SDS011;9148;51.454;13.862;2024-03-22T14:55:14;11.40;;;5.05;;
18046;SDS011;9148;51.454;13.862;2024-03-22T14:57:39;12.30;;;4.60;;
18046;SDS011;9148;51.454;13.862;2024-03-22T15:00:05;7.43;;;5.00;;
18046;SDS011;9148;51.454;13.862;2024-03-22T15:02:35;7.22;;;4.15;;
18046;SDS011;9148;51.454;13.862;2024-03-22T15:05:02;6.32;;;4.47;;
18046;SDS011;9148;51.454;13.862;2024-03-22T15:07:29;5.53;;;3.53;;
18046;SDS011;9148;51.454;13.862;2024-03-22T15:09:55;9.45;;;5.28;;
18046;SDS011;9148;51.454;13.862;2024-03-22T15:12:21;7.57;;;4.22;;
18046;SDS011;9148;51.454;13.862;2024-03-22T15:14:47;6.53;;;4.43;;
18046;SDS011;9148;51.454;13.862;2024-03-22T15:17:12;8.55;;;4.40;;
18046;SDS011;9148;51.454;13.862;2024-03-22T15:19:41;6.70;;;4.47;;
18046;SDS011;9148;51.454;13.862;2024-03-22T15:22:07;5.82;;;4.10;;
18046;SDS011;9148;51.454;13.862;2024-03-22T15:24:33;8.07;;;4.78;;
18046;SDS011;9148;51.454;13.862;2024-03-22T15:26:59;9.57;;;4.45;;
18046;SDS011;9148;51.454;13.862;2024-03-22T15:29:25;7.53;;;4.60;;
18046;SDS011;9148;51.454;13.862;2024-03-22T15:31:50;8.43;;;4.30;;
18046;SDS011;9148;51.454;13.862;2024-03-22T15:34:16;5.05;;;3.70;;
18046;SDS011;9148;51.454;13.862;2024-03-22T15:36:42;5.55;;;4.63;;
18046;SDS011;9148;51.454;13.862;2024-03-22T15:39:08;8.45;;;4.88;;
18046;SDS011;9148;51.454;13.862;2024-03-22T15:41:35;6.60;;;5.25;;
18046;SDS011;9148;51.454;13.862;2024-03-22T15:44:00;13.13;;;4.85;;
18046;SDS011;9148;51.454;13.862;2024-03-22T15:46:26;6.45;;;3.78;;
18046;SDS011;9148;51.454;13.862;2024-03-22T15:48:52;14.32;;;5.95;;
18046;SDS011;9148;51.454;13.862;2024-03-22T15:51:17;7.20;;;4.35;;
18046;SDS011;9148;51.454;13.862;2024-03-22T15:53:43;7.38;;;4.30;;
18046;SDS011;9148;51.454;13.862;2024-03-22T15:56:09;8.68;;;4.72;;
18046;SDS011;9148;51.454;13.862;2024-03-22T15:58:35;5.25;;;3.83;;
18046;SDS011;9148;51.454;13.862;2024-03-22T16:01:00;5.10;;;3.80;;
18046;SDS011;9148;51.454;13.862;2024-03-22T16:03:26;5.40;;;3.72;;
18046;SDS011;9148;51.454;13.862;2024-03-22T16:05:52;10.73;;;4.38;;
18046;SDS011;9148;51.454;13.862;2024-03-22T16:08:18;7.93;;;3.95;;
18046;SDS011;9148;51.454;13.862;2024-03-22T16:10:44;10.45;;;4.43;;
18046;SDS011;9148;51.454;13.862;2024-03-22T16:13:10;6.20;;;4.40;;
18046;SDS011;9148;51.454;13.862;2024-03-22T16:15:36;6.63;;;4.60;;
18046;SDS011;9148;51.454;13.862;2024-03-22T16:18:02;4.78;;;4.05;;
18046;SDS011;9148;51.454;13.862;2024-03-22T16:20:28;9.73;;;5.43;;
18046;SDS011;9148;51.454;13.862;2024-03-22T16:22:54;7.75;;;4.82;;
18046;SDS011;9148;51.454;13.862;2024-03-22T16:25:20;7.30;;;5.60;;
18046;SDS011;9148;51.454;13.862;2024-03-22T16:27:45;4.53;;;3.70;;
18046;SDS011;9148;51.454;13.862;2024-03-22T16:30:11;11.48;;;5.53;;
18046;SDS011;9148;51.454;13.862;2024-03-22T16:32:37;7.57;;;4.53;;
18046;SDS011;9148;51.454;13.862;2024-03-22T16:35:03;7.87;;;5.37;;
18046;SDS011;9148;51.454;13.862;2024-03-22T16:37:30;8.73;;;4.73;;
18046;SDS011;9148;51.454;13.862;2024-03-22T16:39:56;9.85;;;5.35;;
18046;SDS011;9148;51.454;13.862;2024-03-22T16:42:23;8.48;;;4.93;;